A- A+ FrançaisEnglishEspañol中国

Services sur Internet Soldes sur Internet Des idées de cadeaux Météo Météo aéro

La météo à : Autours de vous Tarbes-Lourdes-PyrénéesMontpellier-Frejorgues Brest-Guipavas Bordeaux-Yvrac

manche à air

La météo aéronautique pour les pilotes, la préparation du vol avec les METAR (METeorological Aerodrome Report, message d'observation des conditions météorologiques pour l'aviation) et Les TAF (Terminal Aerodrome Forecast : message de prévision à court terme des conditions météorologiques pour l'aviation). Et les autres ressources comme les VAC (Visual Approch Chart) et les NOTAM (Notice To Airman) pour préprer les vols.

Aéroport Calabar (Nigéria) / OACI DNCA/ IATA CBQ

L'altitude de l'aéroport Calabar est de 64 m = 210 ft. Il est situé à proximité de Calabar (Nigéria). La météo générale à 5 jours est disponible pour Ohafia-Ifigh situé à 92.5 km.

METAR de l'aéroport Calabar - DNCA

DNCA 041000Z 09004KT 7000 BKN010 FEW019CB 29/26 Q1012

Décodage du METAR de l'aéroport Calabar (NG)

METAR émis par DNCA le mercredi 4 décembre 2019 à 10:00 heure TU. Attention ce METAR est obsolète car il a été émis il y a 22 heure et 0 minutes.

La visibilité est de 7 km = 4.3 sm.

La température est de 29°C = 84 °F et le point rosée est de 26°C = 79 °F . Ce qui correspond à 84% d'humidité relative.

Le QNH est de 1012 hPa = 29.88 inHg

Vent de 4 kt = 7 km/h, orienté à 90°.

Nuages : Couverture nuageuse fragmentée à 1000 ft = 300 mètres. Quelques nuages à 1900 ft = 580 mètres.

TAF de l'aéroport Calabar - DNCA

DNCA 010500Z 0106/0212 00000KT 5000 B5R BKN007 PROB30 TEMPO 0108/0110 22007KT 3000 -TSRA BKN007 FEW020CB BECMG 0110/0112 22010KT 7000 NSW BKN011 FEW020CB

DNCA 010500Z 0106/0212 00000KT 5000 B5R couverture nuageuse fragmentée à 007 probabilité de 30% d'avoir temporairement 0108/0110 22007KT 3000 faible TSRA couverture nuageuse fragmentée à 007 quelques nuages à 020CB devenant 0110/0112 22010KT 7000 NSW couverture nuageuse fragmentée à 011 quelques nuages à 020CB

Aéroport à proximité de Calabar

Météo générale à 5 jours à Ohafia-Ifigh (92.5 km)Aéroport Mamfe (134 km)Aéroport Owerri (136 km)Aéroport Malabo (142 km)Aéroport Tiko (149 km)Aéroport Port Harcourt (155 km)Aéroport N'kongssamba (176 km)

Vue aérienne de l'aéroport Calabar

NOTAM de l'aéroport Calabar

Les NOTAM sont fournis sans aucune garantie de leur actualité. Le pilote est le seul responsable de la vérification de sa validité avant de l'utiliser opérationnellement pour préparer un vol ou l'utiliser lors de sa navigation.

Pas de NOTAM

Sources des données